Time;durP1;ratioP1;P1;durP2;ratioP2;P2;SDS_P1;SDS_P2;PMS_P1;PMS_P2;Temp;Humidity;BMP_temperature;BMP_pressure;BME280_temperature;BME280_humidity;BME280_pressure;Samples;Min_cycle;Max_cycle;Signal;HPM_P1;HPM_P2
2022/11/21 00:00:58;;;;;;;9.88;2.35;;;;;;;9.75;66.85;96319.72;4878687;28;20203;-76
2022/11/21 00:03:24;;;;;;;7.57;2.33;;;;;;;9.65;66.89;96305.94;4862774;29;20678;-76
2022/11/21 00:05:49;;;;;;;6.60;2.22;;;;;;;9.89;66.40;96312.16;4859544;29;20299;-76
2022/11/21 00:08:17;;;;;;;10.23;2.10;;;;;;;9.85;66.51;96305.94;4856793;29;20199;-76
2022/11/21 00:10:43;;;;;;;9.75;2.55;;;;;;;9.93;65.98;96300.19;4883310;28;20451;-76
2022/11/21 00:13:14;;;;;;;11.48;1.95;;;;;;;9.97;65.84;96305.66;4876947;28;20414;-76
2022/11/21 00:15:39;;;;;;;11.02;2.70;;;;;;;9.85;66.73;96305.13;4863011;28;20352;-76
2022/11/21 00:18:05;;;;;;;8.38;2.20;;;;;;;9.98;66.02;96309.03;4870115;28;20783;-76
2022/11/21 00:20:30;;;;;;;6.90;2.55;;;;;;;9.81;66.93;96304.09;4883117;28;20264;-76
2022/11/21 00:22:56;;;;;;;4.07;2.15;;;;;;;9.91;66.09;96293.72;4879267;28;20313;-76
2022/11/21 00:25:21;;;;;;;8.77;2.20;;;;;;;9.93;66.80;96299.41;4867961;28;20208;-76
2022/11/21 00:27:46;;;;;;;3.92;1.83;;;;;;;10.03;66.12;96293.44;4875996;28;20216;-76
2022/11/21 00:30:12;;;;;;;5.25;2.05;;;;;;;10.13;66.63;96296.03;4878405;28;20246;-77
2022/11/21 00:32:37;;;;;;;4.38;1.50;;;;;;;10.09;66.14;96300.16;4862689;28;20357;-76
2022/11/21 00:35:04;;;;;;;8.18;2.03;;;;;;;10.16;66.19;96295.50;4872781;28;20120;-76
2022/11/21 00:37:31;;;;;;;8.70;2.88;;;;;;;10.19;65.96;96297.56;4877780;28;20305;-77
2022/11/21 00:39:56;;;;;;;6.18;2.40;;;;;;;10.03;66.33;96293.44;4855517;29;20285;-76
2022/11/21 00:42:21;;;;;;;5.68;1.75;;;;;;;10.17;66.13;96284.03;4855175;28;20206;-76
2022/11/21 00:44:47;;;;;;;4.25;1.75;;;;;;;10.11;65.77;96298.13;4868104;28;20365;-76
2022/11/21 00:47:12;;;;;;;4.35;1.08;;;;;;;10.08;65.91;96294.19;4870710;28;20278;-76
2022/11/21 00:49:37;;;;;;;5.25;1.73;;;;;;;10.12;65.71;96295.22;4880020;28;20130;-76
2022/11/21 00:52:03;;;;;;;3.15;1.10;;;;;;;9.94;64.82;96293.19;4875783;28;20230;-76
2022/11/21 00:54:28;;;;;;;3.13;1.50;;;;;;;9.92;65.40;96287.44;4876191;28;20177;-76
2022/11/21 00:56:54;;;;;;;4.78;1.45;;;;;;;9.91;65.40;96286.69;4867907;28;20981;-76
2022/11/21 00:59:19;;;;;;;2.72;0.90;;;;;;;10.00;65.51;96279.13;4877342;28;20653;-77
2022/11/21 01:01:44;;;;;;;3.92;1.13;;;;;;;9.70;66.46;96277.34;4872368;28;20721;-76
2022/11/21 01:04:10;;;;;;;5.97;0.90;;;;;;;9.67;65.78;96268.22;4863237;29;20215;-76
2022/11/21 01:06:37;;;;;;;5.00;1.10;;;;;;;9.89;65.76;96277.59;4870219;28;20404;-75
2022/11/21 01:09:02;;;;;;;2.72;0.75;;;;;;;9.78;65.43;96260.44;4868731;28;20222;-76
2022/11/21 01:11:28;;;;;;;4.22;1.08;;;;;;;9.77;65.20;96264.84;4878316;28;20207;-76
2022/11/21 01:13:54;;;;;;;1.92;0.73;;;;;;;9.83;65.19;96258.59;4874591;28;20208;-76
2022/11/21 01:16:24;;;;;;;4.72;1.30;;;;;;;9.81;65.40;96260.69;4877340;28;20578;-77
2022/11/21 01:18:49;;;;;;;3.65;1.00;;;;;;;9.54;66.50;96261.75;4849619;28;20168;-76
2022/11/21 01:21:16;;;;;;;2.55;0.82;;;;;;;9.66;65.92;96258.09;4861839;28;20719;-76
2022/11/21 01:23:42;;;;;;;4.82;0.70;;;;;;;9.71;65.86;96264.06;4882838;28;20160;-77
2022/11/21 01:26:10;;;;;;;3.17;0.90;;;;;;;9.79;65.64;96260.16;4867275;28;20586;-76
2022/11/21 01:28:35;;;;;;;4.43;1.25;;;;;;;9.74;65.71;96257.56;4866233;28;20207;-76
2022/11/21 01:31:10;;;;;;;4.63;1.40;;;;;;;9.81;65.92;96260.69;4860774;28;20660;-76
2022/11/21 01:33:36;;;;;;;5.03;1.52;;;;;;;9.68;66.49;96249.00;4872966;28;20300;-76
2022/11/21 01:36:31;;;;;;;3.22;1.10;;;;;;;9.87;66.52;96262.25;4843068;28;20282;-77
2022/11/21 01:38:59;;;;;;;4.13;2.15;;;;;;;9.77;66.97;96246.66;4844040;29;20299;-76
2022/11/21 01:41:27;;;;;;;3.65;1.85;;;;;;;9.84;66.23;96244.56;4858031;29;20270;-76
2022/11/21 01:43:52;;;;;;;4.30;1.50;;;;;;;9.92;66.21;96246.66;4872334;28;20276;-76
2022/11/21 01:46:19;;;;;;;3.05;1.77;;;;;;;9.92;66.74;96246.66;4856894;29;20246;-76
2022/11/21 01:49:07;;;;;;;6.03;1.52;;;;;;;9.98;66.17;96250.00;4881312;28;20211;-76
2022/11/21 01:51:37;;;;;;;4.28;1.50;;;;;;;10.11;66.56;96256.50;4863083;28;20705;-76
2022/11/21 01:54:27;;;;;;;2.95;1.50;;;;;;;10.14;66.09;96261.16;4872399;28;20713;-76
2022/11/21 01:57:00;;;;;;;3.88;1.83;;;;;;;10.01;66.54;96259.13;4866810;28;20169;-76
2022/11/21 01:59:42;;;;;;;3.10;1.20;;;;;;;10.04;66.24;96256.78;4867771;28;20206;-76
2022/11/21 02:02:09;;;;;;;2.67;1.40;;;;;;;9.94;66.59;96260.16;4874528;28;20211;-76
2022/11/21 02:04:35;;;;;;;4.45;1.48;;;;;;;9.73;67.19;96263.81;4878935;28;20278;-76
2022/11/21 02:07:05;;;;;;;5.20;1.73;;;;;;;10.08;66.25;96267.41;4855013;29;20196;-76
2022/11/21 02:09:32;;;;;;;5.00;1.40;;;;;;;9.98;66.28;96272.63;4866834;28;20184;-76
2022/11/21 02:12:01;;;;;;;5.35;2.08;;;;;;;10.10;66.04;96266.09;4886647;28;20215;-76
2022/11/21 02:14:27;;;;;;;4.75;1.58;;;;;;;9.91;65.93;96271.06;4883456;28;20251;-75
2022/11/21 02:16:56;;;;;;;3.72;1.25;;;;;;;9.93;65.46;96266.38;4880418;28;20180;-76
2022/11/21 02:19:36;;;;;;;3.63;1.27;;;;;;;10.13;65.32;96259.59;4870589;29;20288;-77
2022/11/21 02:22:11;;;;;;;3.58;1.45;;;;;;;10.05;65.57;96257.53;4886323;28;20263;-76
2022/11/21 02:24:46;;;;;;;3.80;0.93;;;;;;;10.24;65.51;96258.53;4886181;28;20298;-76
2022/11/21 02:27:11;;;;;;;;;;;;;;;10.29;64.55;96257.75;4846963;29;20255;-75
2022/11/21 02:29:38;;;;;;;4.63;0.95;;;;;;;10.09;65.27;96256.75;4867060;28;20180;-75
2022/11/21 02:32:04;;;;;;;1.90;0.70;;;;;;;9.93;65.16;96263.78;4886014;28;20251;-76
2022/11/21 02:34:31;;;;;;;3.42;1.33;;;;;;;9.98;65.42;96254.44;4881542;28;20243;-76
2022/11/21 02:36:56;;;;;;;4.50;0.80;;;;;;;9.91;66.00;96254.69;4885795;28;20733;-76
2022/11/21 02:39:26;;;;;;;3.08;0.95;;;;;;;9.93;66.07;96245.59;4879167;28;20342;-76
2022/11/21 02:42:22;;;;;;;2.75;1.00;;;;;;;10.08;65.47;96250.00;4881974;28;20639;-76
2022/11/21 02:44:50;;;;;;;1.52;0.63;;;;;;;9.94;65.23;96248.97;4864498;28;20243;-76
2022/11/21 02:47:15;;;;;;;2.90;1.05;;;;;;;9.88;65.26;96248.19;4878305;28;20291;-76
2022/11/21 02:49:50;;;;;;;2.17;0.52;;;;;;;10.08;65.74;96244.00;4875850;28;20647;-76
2022/11/21 02:52:15;;;;;;;1.10;0.50;;;;;;;9.99;65.61;96237.78;4880848;28;20180;-76
2022/11/21 02:54:40;;;;;;;0.85;0.65;;;;;;;9.90;65.49;96238.34;4883527;28;20254;-76
2022/11/21 02:57:06;;;;;;;1.90;0.63;;;;;;;9.94;65.64;96246.38;4874716;28;20267;-76
2022/11/21 02:59:31;;;;;;;1.90;0.70;;;;;;;9.87;65.38;96243.25;4879064;28;20196;-76
2022/11/21 03:01:58;;;;;;;2.05;0.95;;;;;;;9.85;64.91;96248.75;4880092;28;20285;-76
2022/11/21 03:04:25;;;;;;;1.55;0.60;;;;;;;9.99;65.37;96250.78;4879375;28;20207;-76
2022/11/21 03:06:50;;;;;;;1.85;0.60;;;;;;;9.99;65.58;96253.38;4844144;28;20708;-76
2022/11/21 03:09:16;;;;;;;2.15;1.08;;;;;;;9.85;65.98;96253.13;4880850;28;20212;-76
2022/11/21 03:11:41;;;;;;;2.45;0.60;;;;;;;9.90;65.71;96246.13;4875246;28;20227;-76
2022/11/21 03:14:07;;;;;;;1.67;0.60;;;;;;;9.97;65.72;96253.63;4885488;28;20375;-75
2022/11/21 03:16:32;;;;;;;1.60;0.65;;;;;;;9.93;65.49;96248.19;4877992;28;20414;-76
2022/11/21 03:18:58;;;;;;;3.10;0.60;;;;;;;9.84;65.93;96260.16;4884604;28;20266;-76
2022/11/21 03:21:23;;;;;;;2.38;0.93;;;;;;;9.94;65.23;96254.94;4885058;28;20278;-76
2022/11/21 03:23:49;;;;;;;2.45;0.60;;;;;;;9.73;65.85;96254.22;4884965;28;20203;-76
2022/11/21 03:26:14;;;;;;;1.92;0.60;;;;;;;9.93;65.84;96255.97;4878979;28;20274;-76
2022/11/21 03:28:41;;;;;;;2.40;0.60;;;;;;;9.79;66.19;96267.19;4881695;28;20629;-76
2022/11/21 03:31:06;;;;;;;1.98;0.60;;;;;;;9.81;65.66;96259.91;4869069;28;20408;-76
2022/11/21 03:33:31;;;;;;;1.75;0.65;;;;;;;9.95;65.50;96258.31;4885020;28;20706;-76
2022/11/21 03:35:57;;;;;;;1.38;0.70;;;;;;;9.86;65.68;96254.72;4884843;28;20720;-75
2022/11/21 03:38:22;;;;;;;0.88;0.60;;;;;;;9.83;65.84;96253.41;4884614;28;20211;-76
2022/11/21 03:40:47;;;;;;;2.22;0.68;;;;;;;9.91;65.21;96254.69;4884683;28;20190;-76
2022/11/21 03:43:13;;;;;;;2.35;0.68;;;;;;;9.86;66.05;96260.69;4870206;28;20275;-76
2022/11/21 03:45:38;;;;;;;3.58;0.60;;;;;;;9.93;65.24;96258.59;4875989;28;20198;-75
2022/11/21 03:48:04;;;;;;;2.13;0.90;;;;;;;9.91;65.00;96259.91;4865428;29;20259;-75
2022/11/21 03:50:29;;;;;;;2.15;0.63;;;;;;;9.85;65.40;96268.75;4856645;29;20186;-76
2022/11/21 03:52:54;;;;;;;2.60;0.98;;;;;;;9.88;65.44;96260.41;4880645;28;20728;-76
2022/11/21 03:55:20;;;;;;;3.22;1.10;;;;;;;9.88;65.46;96266.38;4879018;28;20712;-76
2022/11/21 03:57:46;;;;;;;2.30;0.90;;;;;;;9.94;65.42;96259.38;4874980;28;20363;-76
2022/11/21 04:00:12;;;;;;;3.25;0.80;;;;;;;9.96;65.10;96270.28;4862335;29;20761;-75
2022/11/21 04:02:37;;;;;;;4.53;0.95;;;;;;;9.86;65.63;96265.88;4881305;28;20638;-76
2022/11/21 04:05:03;;;;;;;2.78;1.00;;;;;;;9.95;65.67;96266.13;4877307;28;20184;-75
2022/11/21 04:07:28;;;;;;;3.38;1.38;;;;;;;10.01;65.29;96259.88;4859537;29;20109;-76
2022/11/21 04:09:54;;;;;;;3.75;1.25;;;;;;;10.00;65.29;96266.13;4879029;28;20254;-75
2022/11/21 04:12:19;;;;;;;4.30;2.15;;;;;;;9.94;66.00;96260.16;4869120;28;20251;-75
2022/11/21 04:14:45;;;;;;;4.28;1.40;;;;;;;10.01;65.22;96266.91;4882548;28;20227;-76
2022/11/21 04:17:10;;;;;;;3.15;1.30;;;;;;;9.88;65.90;96260.41;4876317;28;20278;-78
2022/11/21 04:19:35;;;;;;;2.78;1.27;;;;;;;9.97;65.21;96273.66;4884509;28;20502;-76
2022/11/21 04:22:01;;;;;;;2.78;1.13;;;;;;;10.04;65.50;96267.16;4879532;28;20180;-76
2022/11/21 04:24:26;;;;;;;4.50;1.20;;;;;;;10.01;65.49;96272.13;4883707;28;20274;-75
2022/11/21 04:26:53;;;;;;;2.60;1.40;;;;;;;10.02;65.79;96268.47;4883095;28;20125;-75
2022/11/21 04:29:18;;;;;;;2.63;1.38;;;;;;;9.96;64.99;96265.09;4880929;28;20247;-76
2022/11/21 04:31:44;;;;;;;6.25;1.80;;;;;;;9.97;65.65;96276.28;4883289;28;20726;-76
2022/11/21 04:34:09;;;;;;;7.57;1.60;;;;;;;9.91;65.21;96265.09;4884000;28;20745;-75
2022/11/21 04:36:34;;;;;;;4.75;1.92;;;;;;;10.03;64.83;96268.19;4872656;28;20629;-76
2022/11/21 04:39:00;;;;;;;4.75;1.95;;;;;;;10.07;64.45;96264.03;4883617;28;20242;-75
2022/11/21 04:41:25;;;;;;;5.82;1.95;;;;;;;10.08;64.56;96257.03;4883674;28;20273;-76
2022/11/21 04:43:51;;;;;;;5.07;1.98;;;;;;;10.02;64.17;96255.47;4858269;28;20159;-76
2022/11/21 04:46:16;;;;;;;6.00;2.10;;;;;;;10.01;65.11;96253.91;4876127;28;20315;-75
2022/11/21 04:48:43;;;;;;;5.63;2.00;;;;;;;9.99;64.64;96250.78;4860974;28;20248;-76
2022/11/21 04:51:08;;;;;;;2.92;1.58;;;;;;;10.04;64.97;96253.38;4851874;29;20294;-76
2022/11/21 04:53:34;;;;;;;4.75;2.17;;;;;;;9.94;65.08;96251.59;4866792;28;20199;-76
2022/11/21 04:56:04;;;;;;;3.20;1.80;;;;;;;10.01;64.96;96231.28;4860635;28;20231;-76
2022/11/21 04:58:29;;;;;;;4.75;1.58;;;;;;;9.65;65.48;96241.72;4880027;28;20295;-75
2022/11/21 05:00:55;;;;;;;3.00;1.80;;;;;;;9.65;65.70;96235.75;4877269;28;20650;-75
2022/11/21 05:03:20;;;;;;;4.78;1.77;;;;;;;9.77;64.16;96236.25;4879415;28;20693;-76
2022/11/21 05:05:45;;;;;;;4.03;1.60;;;;;;;9.57;64.79;96239.66;4855125;29;20717;-76
2022/11/21 05:08:11;;;;;;;4.68;1.55;;;;;;;9.59;64.70;96244.59;4877085;28;20215;-75
2022/11/21 05:13:19;;;;;;;3.97;1.67;;;;;;;9.81;64.75;96250.28;4880482;28;20297;-76
2022/11/21 05:13:21;;;;;;;3.25;1.30;;;;;;;9.79;64.78;96257.56;4875576;28;20293;-75
2022/11/21 05:15:50;;;;;;;2.22;1.10;;;;;;;9.87;63.97;96253.66;4877861;28;20292;-76
2022/11/21 05:18:17;;;;;;;2.90;1.35;;;;;;;9.86;64.45;96255.47;4845677;29;20188;-76
2022/11/21 05:20:42;;;;;;;13.18;1.92;;;;;;;9.90;64.51;96256.53;4877095;28;20223;-76
2022/11/21 05:23:08;;;;;;;5.65;1.20;;;;;;;9.84;64.67;96249.78;4880416;28;20689;-76
2022/11/21 05:25:33;;;;;;;2.75;1.27;;;;;;;9.77;64.32;96243.25;4879894;28;20286;-76
2022/11/21 05:27:58;;;;;;;1.85;1.00;;;;;;;9.61;64.76;96234.69;4882925;28;20250;-76
2022/11/21 05:30:24;;;;;;;3.03;1.15;;;;;;;9.71;64.37;96245.09;4878838;28;20268;-76
2022/11/21 05:32:49;;;;;;;2.20;1.05;;;;;;;9.75;64.98;96246.91;4862759;29;20206;-76
2022/11/21 05:35:15;;;;;;;2.25;1.38;;;;;;;9.76;64.94;96247.69;4875838;28;20196;-76
2022/11/21 05:37:40;;;;;;;6.18;1.38;;;;;;;9.79;65.21;96247.16;4872429;28;20244;-75
2022/11/21 05:40:06;;;;;;;5.15;1.88;;;;;;;9.67;65.21;96251.88;4868807;28;20228;-76
2022/11/21 05:45:16;;;;;;;4.30;1.73;;;;;;;9.61;64.99;96252.91;4859600;28;20657;-75
2022/11/21 05:47:41;;;;;;;5.25;1.60;;;;;;;9.75;65.41;96248.75;4864261;29;20216;-75
2022/11/21 05:50:07;;;;;;;6.22;2.00;;;;;;;9.72;64.78;96244.06;4869902;28;20264;-76
2022/11/21 05:52:32;;;;;;;5.38;1.58;;;;;;;9.44;66.72;96245.34;4871551;28;20200;-75
2022/11/21 05:54:57;;;;;;;8.90;2.08;;;;;;;9.67;65.28;96238.88;4881450;28;20248;-76
2022/11/21 05:57:23;;;;;;;5.93;1.63;;;;;;;9.73;65.00;96245.59;4859894;29;20268;-76
2022/11/21 05:59:48;;;;;;;6.68;1.92;;;;;;;9.75;65.16;96251.34;4881532;28;20437;-76
2022/11/21 06:04:57;;;;;;;4.53;2.22;;;;;;;9.70;65.51;96243.56;4878093;28;20179;-76
2022/11/21 06:07:23;;;;;;;4.93;1.95;;;;;;;9.79;65.21;96246.41;4875730;28;20218;-75
2022/11/21 06:09:48;;;;;;;5.22;1.80;;;;;;;9.80;64.33;96246.16;4864825;28;20165;-75
2022/11/21 06:12:13;;;;;;;4.75;2.38;;;;;;;9.83;65.06;96242.22;4853474;29;20228;-75
2022/11/21 06:14:39;;;;;;;6.07;1.92;;;;;;;9.81;64.21;96246.91;4873205;28;20278;-76
2022/11/21 06:17:04;;;;;;;4.30;1.65;;;;;;;9.75;64.26;96244.31;4876275;28;20134;-76
2022/11/21 06:19:29;;;;;;;6.35;2.05;;;;;;;9.65;64.13;96246.94;4875558;28;20192;-76
2022/11/21 06:21:54;;;;;;;3.70;1.63;;;;;;;9.68;63.89;96256.00;4867503;28;20281;-76
2022/11/21 06:24:20;;;;;;;5.75;1.98;;;;;;;9.56;63.84;96249.28;4859697;29;20351;-76
2022/11/21 06:26:45;;;;;;;5.38;1.77;;;;;;;9.49;63.70;96248.75;4861957;28;20184;-77
2022/11/21 06:29:12;;;;;;;6.15;1.42;;;;;;;9.55;64.49;96245.09;4875660;28;20195;-75
2022/11/21 06:31:38;;;;;;;3.17;1.60;;;;;;;9.53;63.67;96249.78;4858475;29;20590;-76
2022/11/21 06:34:03;;;;;;;3.40;1.33;;;;;;;9.57;63.30;96250.03;4854960;29;20631;-76
2022/11/21 06:36:28;;;;;;;6.18;1.92;;;;;;;9.58;63.81;96251.63;4846845;29;20339;-75
2022/11/21 06:38:54;;;;;;;4.65;1.58;;;;;;;9.47;63.34;96256.00;4855831;29;20243;-76
2022/11/21 06:41:25;;;;;;;3.70;1.65;;;;;;;9.67;62.77;96260.44;4871486;28;20207;-76
2022/11/21 06:43:50;;;;;;;3.30;1.67;;;;;;;9.45;63.48;96246.94;4849135;29;20205;-75
2022/11/21 06:46:16;;;;;;;6.60;1.60;;;;;;;9.40;63.12;96250.28;4852281;29;20171;-76
2022/11/21 06:48:42;;;;;;;3.17;1.33;;;;;;;9.60;63.60;96248.75;4862341;29;20393;-76
2022/11/21 06:51:17;;;;;;;2.33;1.17;;;;;;;9.63;63.21;96250.81;4873596;28;20207;-76
2022/11/21 06:53:47;;;;;;;3.83;1.45;;;;;;;9.56;63.35;96254.47;4877721;28;20176;-76
2022/11/21 06:56:13;;;;;;;2.83;1.45;;;;;;;9.59;63.46;96253.16;4857397;28;20162;-76
2022/11/21 06:58:39;;;;;;;3.10;1.50;;;;;;;9.47;62.87;96255.22;4865060;29;20355;-76
2022/11/21 07:01:08;;;;;;;2.88;1.50;;;;;;;9.56;63.50;96253.66;4875806;28;20246;-75
2022/11/21 07:03:34;;;;;;;3.08;1.50;;;;;;;9.28;63.68;96258.34;4857232;29;20195;-75
2022/11/21 07:06:00;;;;;;;2.80;1.58;;;;;;;9.44;63.14;96253.94;4854543;29;20192;-76
2022/11/21 07:08:30;;;;;;;4.35;2.13;;;;;;;9.50;62.78;96260.69;4878835;28;20220;-75
2022/11/21 07:10:59;;;;;;;4.90;2.30;;;;;;;9.50;62.86;96252.13;4864529;28;20598;-76
2022/11/21 07:13:24;;;;;;;4.03;1.52;;;;;;;9.44;63.09;96246.16;4858007;28;20624;-76
2022/11/21 07:15:52;;;;;;;6.55;1.48;;;;;;;9.41;63.78;96253.66;4851546;29;20189;-76
2022/11/21 07:18:18;;;;;;;2.95;1.17;;;;;;;9.35;63.21;96258.09;4862799;28;20664;-76
2022/11/21 07:20:43;;;;;;;2.75;1.40;;;;;;;9.37;62.89;96256.00;4864380;29;20164;-75
2022/11/21 07:23:09;;;;;;;6.70;1.33;;;;;;;9.27;62.85;96266.38;4878143;28;20648;-75
2022/11/21 07:25:34;;;;;;;5.63;1.80;;;;;;;9.28;62.89;96271.31;4869054;28;20990;-76
2022/11/21 07:28:00;;;;;;;4.07;1.63;;;;;;;9.26;64.01;96276.00;4871096;28;20215;-76
2022/11/21 07:30:26;;;;;;;4.82;1.48;;;;;;;9.38;63.01;96265.38;4852410;29;20329;-76
2022/11/21 07:32:56;;;;;;;4.15;1.48;;;;;;;9.45;63.60;96265.88;4873040;28;20367;-76
2022/11/21 07:35:21;;;;;;;3.85;1.15;;;;;;;9.11;64.00;96263.75;4851299;29;20282;-75
2022/11/21 07:37:46;;;;;;;5.28;1.40;;;;;;;9.10;63.84;96262.22;4855691;29;21296;-76
2022/11/21 07:40:12;;;;;;;6.35;1.30;;;;;;;9.19;64.03;96263.25;4861792;29;20335;-76
2022/11/21 07:42:38;;;;;;;2.80;1.05;;;;;;;9.18;64.01;96272.09;4874334;28;20399;-75
2022/11/21 07:45:03;;;;;;;3.17;1.33;;;;;;;9.14;63.99;96258.06;4839542;29;20264;-76
2022/11/21 07:47:29;;;;;;;3.47;1.20;;;;;;;9.12;63.67;96265.31;4838333;29;20156;-75
2022/11/21 07:49:54;;;;;;;2.72;1.30;;;;;;;9.08;63.50;96266.88;4880163;28;20199;-76
2022/11/21 07:52:19;;;;;;;2.95;1.35;;;;;;;9.06;64.44;96265.56;4883575;28;20203;-76
2022/11/21 07:54:45;;;;;;;5.97;1.38;;;;;;;9.11;64.29;96270.78;4872053;28;20211;-76
2022/11/21 07:57:10;;;;;;;5.20;1.38;;;;;;;8.93;64.07;96262.44;4860930;28;20193;-76
2022/11/21 07:59:36;;;;;;;3.67;1.45;;;;;;;9.04;64.56;96252.84;4877518;28;20172;-76
2022/11/21 08:02:02;;;;;;;6.53;1.40;;;;;;;8.97;64.86;96252.31;4878253;28;20223;-76
2022/11/21 08:04:27;;;;;;;5.07;1.30;;;;;;;9.16;64.23;96258.56;4854163;29;20715;-76
2022/11/21 08:06:53;;;;;;;5.68;1.45;;;;;;;9.14;64.53;96252.84;4882842;28;20276;-76
2022/11/21 08:09:18;;;;;;;3.00;1.25;;;;;;;9.16;64.32;96255.97;4875236;28;20251;-75
2022/11/21 08:11:43;;;;;;;2.80;1.05;;;;;;;9.14;64.81;96250.25;4881857;28;20661;-76
2022/11/21 08:14:09;;;;;;;7.32;1.77;;;;;;;9.25;64.46;96251.06;4881314;28;20293;-76
2022/11/21 08:16:34;;;;;;;6.93;1.50;;;;;;;9.29;64.19;96249.50;4862467;29;20284;-76
2022/11/21 08:18:59;;;;;;;2.28;1.00;;;;;;;9.30;64.08;96247.69;4878034;28;20198;-76
2022/11/21 08:21:25;;;;;;;4.50;1.30;;;;;;;9.10;64.05;96251.03;4876252;28;20250;-76
2022/11/21 08:23:51;;;;;;;2.47;0.95;;;;;;;9.07;64.55;96254.16;4875106;28;20213;-76
2022/11/21 08:26:16;;;;;;;4.57;1.40;;;;;;;9.16;64.74;96257.81;4863470;29;20300;-76
2022/11/21 08:28:41;;;;;;;5.88;1.45;;;;;;;9.13;65.15;96242.72;4879615;28;20308;-76
2022/11/21 08:31:07;;;;;;;3.95;1.60;;;;;;;9.27;65.06;96233.41;4862228;28;20248;-76
2022/11/21 08:33:32;;;;;;;5.25;1.45;;;;;;;9.18;65.37;96233.16;4875539;28;20267;-76
2022/11/21 08:35:58;;;;;;;6.38;1.60;;;;;;;9.27;64.44;96224.81;4869811;28;20384;-75
2022/11/21 08:38:23;;;;;;;3.03;1.17;;;;;;;9.48;64.68;96220.44;4877557;28;20665;-76
2022/11/21 08:42:01;;;;;;;3.83;2.25;;;;;;;9.56;64.49;96233.69;4882979;28;20215;-76
2022/11/21 08:43:37;;;;;;;8.38;1.42;;;;;;;9.68;64.47;96230.81;4864349;28;20214;-75
2022/11/21 08:46:02;;;;;;;4.65;1.70;;;;;;;9.75;64.82;96228.72;4844599;29;20188;-76
2022/11/21 08:48:27;;;;;;;5.65;1.70;;;;;;;9.77;64.16;96232.88;4877317;28;20168;-76
2022/11/21 08:50:55;;;;;;;5.70;1.80;;;;;;;9.78;64.58;96219.59;4858608;29;20647;-76
2022/11/21 08:53:21;;;;;;;8.50;3.33;;;;;;;9.65;64.52;96220.16;4883701;28;20216;-75
2022/11/21 08:55:46;;;;;;;9.35;2.20;;;;;;;9.75;64.75;96213.13;4883419;28;20809;-76
2022/11/21 08:58:11;;;;;;;6.57;2.30;;;;;;;9.83;64.61;96214.41;4879050;28;20646;-76
2022/11/21 09:00:37;;;;;;;4.88;2.30;;;;;;;9.79;64.88;96210.78;4883418;28;20677;-75
2022/11/21 09:03:05;;;;;;;8.77;3.45;;;;;;;10.03;63.85;96210.22;4883548;28;20270;-75
2022/11/21 09:05:32;;;;;;;6.65;1.88;;;;;;;9.99;64.24;96206.56;4883544;28;20650;-76
2022/11/21 09:07:57;;;;;;;6.20;2.40;;;;;;;9.89;64.13;96210.00;4882703;28;20289;-76
2022/11/21 09:10:24;;;;;;;4.20;1.77;;;;;;;10.18;63.74;96211.97;4883306;28;20264;-75
2022/11/21 09:12:49;;;;;;;4.45;2.13;;;;;;;10.07;63.44;96217.22;4883374;28;20290;-76
2022/11/21 09:18:03;;;;;;;5.00;1.70;;;;;;;10.51;62.84;96202.78;4859091;28;20206;-78
2022/11/21 09:20:32;;;;;;;6.70;1.50;;;;;;;10.20;63.74;96195.06;4851593;28;20215;-75
2022/11/21 09:23:05;;;;;;;7.35;2.05;;;;;;;10.17;63.78;96198.19;4883023;28;20105;-75
2022/11/21 09:25:31;;;;;;;8.98;2.53;;;;;;;10.13;64.72;96191.97;4883176;28;20169;-75
2022/11/21 09:28:04;;;;;;;8.05;1.88;;;;;;;10.58;63.12;96192.84;4882860;28;20322;-77
2022/11/21 09:30:30;;;;;;;9.52;2.80;;;;;;;10.51;62.78;96181.19;4883014;28;20196;-76
2022/11/21 09:33:06;;;;;;;5.00;1.60;;;;;;;10.47;63.25;96188.75;4883238;28;20286;-76
2022/11/21 09:35:32;;;;;;;5.97;2.00;;;;;;;10.45;63.69;96191.63;4882787;28;20199;-76
2022/11/21 09:37:57;;;;;;;6.38;2.08;;;;;;;10.35;63.62;96185.66;4882840;28;20210;-75
2022/11/21 09:40:23;;;;;;;5.90;1.70;;;;;;;10.70;62.94;96181.34;4882655;28;20267;-76
2022/11/21 09:43:14;;;;;;;5.32;1.50;;;;;;;10.89;62.65;96156.22;4883048;28;20188;-76
2022/11/21 09:45:49;;;;;;;5.82;2.25;;;;;;;10.93;63.13;96159.06;4873443;28;20169;-76
2022/11/21 09:48:16;;;;;;;;;;;;;;;11.09;62.03;96157.13;4883091;28;20697;-75
2022/11/21 09:50:54;;;;;;;5.57;1.42;;;;;;;11.04;61.73;96160.56;4854855;28;20292;-76
2022/11/21 09:53:26;;;;;;;5.03;1.50;;;;;;;11.28;62.66;96160.63;4882781;28;20207;-76
2022/11/21 09:55:59;;;;;;;6.93;2.22;;;;;;;11.22;61.84;96162.50;4850888;28;20281;-75
2022/11/21 09:58:47;;;;;;;4.43;1.35;;;;;;;11.47;61.47;96152.13;4866772;29;20289;-76
2022/11/21 10:01:14;;;;;;;5.72;2.25;;;;;;;11.46;60.69;96161.00;4883092;28;20267;-76
2022/11/21 10:03:44;;;;;;;7.10;1.20;;;;;;;11.65;61.02;96154.03;4866934;28;20341;-75
2022/11/21 10:06:18;;;;;;;3.47;1.52;;;;;;;11.84;60.44;96153.34;4882696;28;20207;-76
2022/11/21 10:08:56;;;;;;;5.15;1.60;;;;;;;11.49;61.20;96150.03;4882536;28;20199;-75
2022/11/21 10:15:12;;;;;;;6.45;1.50;;;;;;;11.54;60.61;96132.50;4882836;28;20454;-76
2022/11/21 10:18:03;;;;;;;6.10;1.30;;;;;;;11.71;59.50;96136.53;4861241;28;20214;-76
2022/11/21 10:20:40;;;;;;;4.45;1.50;;;;;;;11.87;59.92;96126.69;4868399;28;20215;-76
2022/11/21 10:23:12;;;;;;;5.55;1.60;;;;;;;11.87;59.63;96124.09;4882219;28;20247;-76
2022/11/21 10:25:38;;;;;;;7.05;1.52;;;;;;;11.81;59.91;96124.16;4866871;29;20191;-76
2022/11/21 10:28:13;;;;;;;8.15;1.75;;;;;;;11.98;58.82;96121.13;4866328;29;20303;-76
2022/11/21 10:30:41;;;;;;;6.93;1.55;;;;;;;11.81;59.47;96108.50;4885984;28;20251;-76
2022/11/21 10:33:32;;;;;;;6.30;2.50;;;;;;;12.03;58.92;96109.06;4885950;28;20319;-76
2022/11/21 10:36:04;;;;;;;6.90;1.88;;;;;;;11.25;59.82;96101.25;4869493;29;20258;-75
2022/11/21 10:38:36;;;;;;;6.22;1.65;;;;;;;11.74;59.88;96095.03;4885924;28;20292;-76
2022/11/21 10:41:06;;;;;;;5.75;2.00;;;;;;;11.73;59.49;96098.69;4885853;28;20211;-75
2022/11/21 10:46:24;;;;;;;7.57;2.22;;;;;;;11.79;59.86;96089.75;4870403;28;20100;-76
2022/11/21 10:48:58;;;;;;;6.25;2.80;;;;;;;11.99;59.89;96082.75;4853847;29;20298;-76
2022/11/21 10:51:33;;;;;;;8.77;2.88;;;;;;;12.01;59.53;96069.44;4869816;29;20160;-76
2022/11/21 10:56:54;;;;;;;7.05;2.60;;;;;;;11.71;60.12;96064.28;4869321;29;20207;-76
2022/11/21 10:59:25;;;;;;;8.93;2.75;;;;;;;11.85;59.52;96053.94;4869762;28;20266;-76
2022/11/21 11:01:58;;;;;;;5.18;2.40;;;;;;;12.06;59.70;96064.94;4885720;28;20685;-76
2022/11/21 11:04:26;;;;;;;6.30;2.33;;;;;;;11.87;59.38;96051.06;4885666;28;20278;-76
2022/11/21 11:06:51;;;;;;;7.03;3.33;;;;;;;11.65;59.63;96043.75;4884920;28;20284;-76
2022/11/21 11:09:30;;;;;;;4.20;2.45;;;;;;;12.00;59.19;96039.97;4885385;28;20176;-75
2022/11/21 11:15:23;;;;;;;8.10;2.17;;;;;;;11.99;59.21;96033.19;4871349;28;20290;-76
2022/11/21 11:17:56;;;;;;;6.13;2.65;;;;;;;12.11;58.44;96030.94;4849410;28;20203;-76
2022/11/21 11:20:42;;;;;;;6.05;2.10;;;;;;;12.12;59.20;96021.28;4885570;28;20097;-76
2022/11/21 11:23:23;;;;;;;5.38;3.20;;;;;;;12.26;57.55;96013.53;4884370;28;20282;-76
2022/11/21 11:25:51;;;;;;;7.50;2.80;;;;;;;12.20;57.87;96007.63;4872414;28;20680;-76
2022/11/21 11:28:22;;;;;;;7.47;2.50;;;;;;;12.18;58.24;96013.13;4885389;28;20195;-76
2022/11/21 11:30:49;;;;;;;4.30;2.03;;;;;;;12.21;57.13;96016.22;4869213;29;20208;-76
2022/11/21 11:33:38;;;;;;;6.50;1.92;;;;;;;12.47;56.86;96016.59;4885441;28;20314;-76
2022/11/21 11:36:07;;;;;;;5.25;1.83;;;;;;;12.32;56.46;96007.16;4884717;28;20208;-76
2022/11/21 11:38:33;;;;;;;6.47;2.38;;;;;;;12.26;56.64;96003.09;4867107;28;20284;-76
2022/11/21 11:41:02;;;;;;;6.90;2.35;;;;;;;12.32;58.01;95994.13;4864116;28;20701;-76
2022/11/21 11:52:33;;;;;;;5.68;1.95;;;;;;;12.82;57.74;95978.69;4877367;28;20383;-76
2022/11/21 11:55:06;;;;;;;5.15;2.15;;;;;;;12.92;55.31;95975.16;4866610;28;20331;-76
2022/11/21 11:57:32;;;;;;;4.47;1.92;;;;;;;12.77;55.72;95972.81;4880236;28;20288;-76
2022/11/21 12:00:22;;;;;;;8.57;2.50;;;;;;;12.76;54.61;95969.41;4884753;28;20243;-76
2022/11/21 12:02:59;;;;;;;5.43;1.60;;;;;;;12.99;53.82;95969.53;4870344;28;20169;-76
2022/11/21 12:05:26;;;;;;;5.28;1.70;;;;;;;12.97;55.02;95963.81;4884619;28;20223;-76
2022/11/21 12:08:07;;;;;;;7.13;1.80;;;;;;;12.90;56.09;95959.75;4868069;28;20187;-76
2022/11/21 12:12:05;;;;;;;5.88;1.67;;;;;;;12.83;55.25;95953.34;4884212;28;20246;-76
2022/11/21 12:13:24;;;;;;;5.80;1.40;;;;;;;12.67;56.13;95950.25;4882074;28;20290;-76